Terminal Aerodrome Forecast
Issued by NWS

Home | Current Version | Previous Version | Text Only | Print | Product List | Glossary On
Versions: 1 2 3 4 5 6 7 8 9 10 11 12 13 14 15 16
000
FTUS43 KJKL 010500
TAFSME
TAF
KSME 010525Z 0106/0206 VRB05KT P6SM SCT040
     FM010800 00000KT 5SM BR BKN090
      TEMPO 0110/0113 1SM BR VV003
     FM011400 05005KT P6SM VCTS SCT025CB BKN040=

USA.gov is the U.S. government's official web portal to all federal, state and local government web resources and services.